Impacts TAF Board INFO
FOR SITUATIONAL AWARENESS. NOT TO BE USED FOR FLIGHT PLANNING PURPOSES.
IDs:

KMCO - Orlando Intl, FL, US

Issued at 2320 UTC 17 Jan 2017
Updated at 2324 UTC 17 Jan 2017
Potential Impact None Slight Moderate High
Time2253Z 18/00Z 18/01Z 18/02Z 18/03Z 18/04Z 18/05Z 18/06Z 18/07Z 18/08Z 18/09Z 18/10Z 18/11Z 18/12Z
Type OBS PRVL PRVL PRVL PRVL PRVL PRVL PRVL PRVL PRVL PRVL PRVL
  [TEMP]  
PRVL
  [TEMP]  
PRVL
  [TEMP]  
VIS 10 >6 >6 >6 >6 >6 >6 >6 >6 >6 >6 >6
  [5]  
>6
  [5]  
>6
  [5]  
CIG 300 250 250 250 250 250 250 250 250 250 250 250
  [250]  
250
  [250]  
250
  [250]  
Cover BKN BKN BKN BKN BKN BKN BKN BKN BKN BKN BKN BKN
  [SCT]  
BKN
  [SCT]  
BKN
  [SCT]  
FltCat VFR VFR VFR VFR VFR VFR VFR VFR VFR VFR VFR VFR
  [MVFR]  
VFR
  [MVFR]  
VFR
  [MVFR]  
WX -- -- -- -- -- -- -- -- -- -- -- --
  [MIFG BR]  
--
  [MIFG BR]  
--
  [MIFG BR]  
WDir VRB VRB VRB VRB VRB VRB VRB VRB VRB VRB VRB VRB
[VRB]
VRB
[VRB]
VRB
[VRB]
WSpd 5 0 0 0 0 0 0 0 0 0 0 0
  [0]  
0
  [0]  
0
  [0]  
WGst -- -- -- -- -- -- -- -- -- -- -- --
  [--]  
--
  [--]  
--
  [--]  

Raw TAF
KMCO 172320Z 1800/1824 00000KT P6SM FEW045 BKN250
  TEMPO 1810/1813 5SM MIFG BR SCT002
  FM181500 22006KT P6SM SCT035 BKN250


Raw METAR
KMCO 172253Z VRB05KT 10SM FEW045 BKN300 23/17 A3020 RMK AO2 SLP226 T02330167
KMCO 172153Z 00000KT 10SM FEW045 BKN300 26/16 A3019 RMK AO2 SLP223 T02560156
KMCO 172053Z 20005KT 10SM FEW044 FEW065 BKN300 26/15 A3020 RMK AO2 SLP224 T02610150 56005

METAR Board
Radar Display
Forecast Discussion

FOR SITUATIONAL AWARENESS. NOT TO BE USED FOR FLIGHT PLANNING PURPOSES.

Page loaded:  23:24 UTC  |   03:24 PM Pacific  |   04:24 PM Mountain  |   05:24 PM Central  |   06:24 PM Eastern

 

ADVISORIES

FORECASTS

FORECASTS

OBSERVATIONS

USER TOOLS

ABOUT US